Time;durP1;ratioP1;P1;durP2;ratioP2;P2;SDS_P1;SDS_P2;PMS_P1;PMS_P2;Temp;Humidity;BMP_temperature;BMP_pressure;BME280_temperature;BME280_humidity;BME280_pressure;Samples;Min_cycle;Max_cycle;Signal;HPM_P1;HPM_P2
2022/08/17 00:01:50;;;;;;;18.67;10.98;;;;;;;20.29;100.00;100895.44;5203429;28;20025;-73
2022/08/17 00:04:21;;;;;;;16.52;10.82;;;;;;;20.29;100.00;100890.81;5191166;28;20069;-73
2022/08/17 00:06:52;;;;;;;17.02;11.15;;;;;;;20.32;100.00;100881.34;5203633;28;20025;-73
2022/08/17 00:09:22;;;;;;;18.75;12.52;;;;;;;20.31;100.00;100872.34;5203446;28;20032;-73
2022/08/17 00:11:53;;;;;;;19.13;12.38;;;;;;;20.34;100.00;100865.59;5203196;28;20074;-73
2022/08/17 00:14:23;;;;;;;16.00;11.90;;;;;;;20.37;100.00;100860.50;5202338;28;20555;-73
2022/08/17 00:16:54;;;;;;;18.88;11.75;;;;;;;20.41;100.00;100853.53;5203299;28;20375;-71
2022/08/17 00:19:25;;;;;;;15.00;11.98;;;;;;;20.43;100.00;100845.13;5203989;28;20038;-72
2022/08/17 00:21:59;;;;;;;20.40;13.18;;;;;;;20.44;100.00;100853.09;5203033;28;20028;-72
2022/08/17 00:24:29;;;;;;;21.58;12.73;;;;;;;20.45;100.00;100856.63;5202349;28;20029;-72
2022/08/17 00:27:00;;;;;;;16.17;11.30;;;;;;;20.45;100.00;100859.38;5203095;28;20501;-72
2022/08/17 00:29:31;;;;;;;17.20;12.70;;;;;;;20.47;100.00;100857.25;5203326;28;20029;-72
2022/08/17 00:32:02;;;;;;;19.95;13.18;;;;;;;20.49;100.00;100852.44;5203103;28;20072;-72
2022/08/17 00:34:32;;;;;;;15.65;11.48;;;;;;;20.49;100.00;100852.44;5202319;28;20057;-72
2022/08/17 00:37:03;;;;;;;20.42;12.70;;;;;;;20.51;100.00;100849.47;5202773;28;20036;-72
2022/08/17 00:39:33;;;;;;;16.75;12.80;;;;;;;20.51;100.00;100861.19;5202900;28;20537;-73
2022/08/17 00:42:13;;;;;;;16.05;12.40;;;;;;;20.51;100.00;100849.47;5198583;28;20040;-72
2022/08/17 00:44:44;;;;;;;16.83;11.00;;;;;;;20.51;100.00;100854.91;5202161;28;20026;-72
2022/08/17 00:47:14;;;;;;;18.75;12.00;;;;;;;20.52;100.00;100848.41;5206107;28;20482;-72
2022/08/17 00:49:45;;;;;;;22.27;13.68;;;;;;;20.50;100.00;100853.25;5202520;28;20083;-73
2022/08/17 00:52:20;;;;;;;16.67;13.20;;;;;;;20.45;100.00;100848.47;5202653;28;20029;-72
2022/08/17 00:54:53;;;;;;;19.42;12.60;;;;;;;20.39;100.00;100850.22;5189032;28;20060;-72
2022/08/17 00:57:29;;;;;;;21.63;13.60;;;;;;;20.31;100.00;100849.72;5202787;28;20053;-73
2022/08/17 01:00:06;;;;;;;16.08;12.50;;;;;;;20.20;100.00;100858.66;5202501;28;20079;-73
2022/08/17 01:02:41;;;;;;;14.23;11.85;;;;;;;20.11;100.00;100849.97;5201789;28;20030;-73
2022/08/17 01:05:17;;;;;;;17.00;12.25;;;;;;;20.10;100.00;100851.03;5199494;28;20532;-74
2022/08/17 01:07:49;;;;;;;26.23;13.98;;;;;;;20.09;100.00;100844.75;5207670;28;20025;-74
2022/08/17 01:10:33;;;;;;;17.92;12.05;;;;;;;20.09;100.00;100852.94;5193823;28;20025;-74
2022/08/17 01:13:04;;;;;;;20.08;13.15;;;;;;;20.08;100.00;100842.25;5207356;28;20025;-73
2022/08/17 01:15:36;;;;;;;22.95;13.07;;;;;;;20.06;100.00;100836.22;5206687;28;20394;-73
2022/08/17 01:18:10;;;;;;;18.38;14.70;;;;;;;20.05;100.00;100834.56;5207340;28;20558;-73
2022/08/17 01:20:46;;;;;;;27.58;15.60;;;;;;;20.03;100.00;100836.66;5207181;28;20029;-73
2022/08/17 01:23:19;;;;;;;21.25;14.10;;;;;;;19.98;100.00;100831.91;5207098;28;20033;-73
2022/08/17 01:25:54;;;;;;;24.67;15.73;;;;;;;19.94;100.00;100836.16;5198571;28;20026;-73
2022/08/17 01:28:29;;;;;;;26.87;15.73;;;;;;;19.90;100.00;100830.31;5202526;28;20068;-72
2022/08/17 01:31:05;;;;;;;21.83;15.55;;;;;;;19.87;100.00;100830.78;5207195;28;20279;-73
2022/08/17 01:33:36;;;;;;;18.90;12.98;;;;;;;19.85;100.00;100835.63;5206897;28;20026;-73
2022/08/17 01:36:07;;;;;;;18.80;13.32;;;;;;;19.87;100.00;100843.56;5206251;28;20033;-72
2022/08/17 01:38:38;;;;;;;19.20;14.07;;;;;;;19.87;100.00;100849.81;5206592;28;20029;-72
2022/08/17 01:41:14;;;;;;;16.65;12.40;;;;;;;19.85;100.00;100835.63;5206499;28;20033;-74
2022/08/17 01:43:50;;;;;;;25.83;14.40;;;;;;;19.79;100.00;100841.97;5206522;28;20079;-73
2022/08/17 01:46:25;;;;;;;23.60;14.18;;;;;;;19.72;100.00;100835.75;5206257;28;20018;-73
2022/08/17 01:48:57;;;;;;;18.90;12.98;;;;;;;19.65;100.00;100833.13;5206915;28;20479;-73
2022/08/17 01:51:31;;;;;;;18.80;13.05;;;;;;;19.66;100.00;100828.50;5201586;28;20025;-72
2022/08/17 01:54:09;;;;;;;18.17;13.57;;;;;;;19.65;100.00;100827.69;5202856;28;20025;-72
2022/08/17 01:56:43;;;;;;;20.83;12.80;;;;;;;19.63;100.00;100829.00;5206728;28;20045;-71
2022/08/17 01:59:23;;;;;;;20.08;11.88;;;;;;;19.56;100.00;100836.34;5205701;28;20033;-72
2022/08/17 02:02:08;;;;;;;16.15;12.57;;;;;;;19.52;100.00;100833.22;5206368;28;20021;-72
2022/08/17 02:04:39;;;;;;;20.55;12.32;;;;;;;19.52;100.00;100832.41;5194727;28;20431;-72
2022/08/17 02:07:10;;;;;;;20.48;12.75;;;;;;;19.47;100.00;100832.25;5205848;28;20561;-73
2022/08/17 02:09:40;;;;;;;21.33;13.05;;;;;;;19.46;100.00;100836.03;5206054;28;20041;-72
2022/08/17 02:12:16;;;;;;;17.80;13.18;;;;;;;19.45;100.00;100835.19;5206081;28;20056;-72
2022/08/17 02:14:47;;;;;;;17.77;13.40;;;;;;;19.42;100.00;100833.75;5204478;28;20380;-71
2022/08/17 02:17:17;;;;;;;23.13;14.10;;;;;;;19.40;100.00;100830.44;5205917;28;20084;-71
2022/08/17 02:19:48;;;;;;;20.23;13.35;;;;;;;19.41;100.00;100836.69;5206173;28;20037;-71
2022/08/17 02:22:18;;;;;;;21.15;14.77;;;;;;;19.40;100.00;100837.75;5205982;28;20056;-73
2022/08/17 02:24:49;;;;;;;19.90;14.65;;;;;;;19.40;100.00;100841.31;5205262;28;20389;-73
2022/08/17 02:27:20;;;;;;;18.15;14.00;;;;;;;19.38;100.00;100835.28;5206256;28;20048;-72
2022/08/17 02:29:50;;;;;;;16.65;14.30;;;;;;;19.37;100.00;100838.19;5205489;28;20522;-73
2022/08/17 02:32:24;;;;;;;20.95;14.60;;;;;;;19.34;100.00;100831.34;5205939;28;20025;-72
2022/08/17 02:34:56;;;;;;;20.42;14.45;;;;;;;19.29;100.00;100830.34;5204935;28;20487;-71
2022/08/17 02:37:28;;;;;;;18.23;13.43;;;;;;;19.24;100.00;100832.91;5205953;28;20071;-72
2022/08/17 02:39:59;;;;;;;20.27;13.88;;;;;;;19.17;100.00;100827.50;5203620;28;20025;-72
2022/08/17 02:42:35;;;;;;;26.25;14.38;;;;;;;19.13;100.00;100831.75;5205871;28;20416;-72
2022/08/17 02:45:11;;;;;;;18.10;14.27;;;;;;;19.10;100.00;100834.91;5204612;28;20044;-72
2022/08/17 02:47:43;;;;;;;23.45;14.73;;;;;;;19.08;100.00;100835.13;5204582;28;20030;-72
2022/08/17 02:50:16;;;;;;;24.85;15.48;;;;;;;19.06;100.00;100837.22;5205645;28;20560;-73
2022/08/17 02:52:47;;;;;;;17.88;15.20;;;;;;;19.04;100.00;100835.81;5204978;28;20498;-72
2022/08/17 02:55:22;;;;;;;19.00;14.60;;;;;;;18.98;100.00;100836.69;5205400;28;20185;-71
2022/08/17 02:57:53;;;;;;;22.43;15.77;;;;;;;18.91;100.00;100839.44;5205539;28;20017;-72
2022/08/17 03:00:28;;;;;;;22.75;14.85;;;;;;;18.89;100.00;100844.28;5205133;28;20032;-71
2022/08/17 03:03:00;;;;;;;20.20;13.68;;;;;;;18.89;100.00;100839.69;5199788;28;20108;-70
2022/08/17 03:05:34;;;;;;;25.45;17.13;;;;;;;18.93;100.00;100834.66;5199634;28;20021;-70
2022/08/17 03:08:05;;;;;;;24.73;17.92;;;;;;;18.97;100.00;100835.00;5195326;28;20026;-72
2022/08/17 03:10:36;;;;;;;21.48;17.63;;;;;;;19.00;100.00;100867.19;5233672;28;20030;-71
2022/08/17 03:13:07;;;;;;;21.90;16.65;;;;;;;18.95;100.00;100851.56;5205458;28;20090;-71
2022/08/17 03:15:39;;;;;;;25.75;17.33;;;;;;;18.96;100.00;100847.78;5204046;28;20104;-71
2022/08/17 03:18:12;;;;;;;25.92;16.95;;;;;;;18.98;100.00;100864.72;5205094;28;20394;-70
2022/08/17 03:20:43;;;;;;;23.90;16.55;;;;;;;18.99;100.00;100858.22;5205116;28;20408;-70
2022/08/17 03:23:13;;;;;;;27.02;15.85;;;;;;;19.02;100.00;100855.03;5204752;28;20045;-71
2022/08/17 03:25:44;;;;;;;21.98;17.75;;;;;;;19.08;100.00;100850.63;5203912;28;20084;-71
2022/08/17 03:28:16;;;;;;;22.75;16.08;;;;;;;19.12;100.00;100852.66;5204758;28;20068;-70
2022/08/17 03:30:46;;;;;;;20.40;15.80;;;;;;;19.19;100.00;100855.34;5204822;28;20091;-70
2022/08/17 03:33:18;;;;;;;24.55;16.58;;;;;;;19.25;100.00;100857.16;5204410;28;20018;-71
2022/08/17 03:35:49;;;;;;;21.98;16.55;;;;;;;19.26;100.00;100853.38;5204172;28;20384;-72
2022/08/17 03:38:19;;;;;;;22.38;15.95;;;;;;;19.31;100.00;100845.38;5203854;28;20032;-70
2022/08/17 03:40:52;;;;;;;26.48;17.15;;;;;;;19.27;100.00;100863.19;5204521;28;20487;-71
2022/08/17 03:43:22;;;;;;;24.73;15.70;;;;;;;19.21;100.00;100868.69;5204404;28;20089;-71
2022/08/17 03:57:10;;;;;;;25.90;17.95;;;;;;;18.92;100.00;100865.56;5203965;28;20025;-70
2022/08/17 03:59:40;;;;;;;23.08;17.60;;;;;;;18.91;100.00;100879.41;5204349;28;20017;-70
2022/08/17 04:02:17;;;;;;;36.90;17.67;;;;;;;18.84;100.00;100874.84;5204066;28;20026;-70
2022/08/17 04:04:49;;;;;;;23.25;17.63;;;;;;;18.78;100.00;100878.44;5193051;28;20024;-71
2022/08/17 04:07:22;;;;;;;22.80;16.83;;;;;;;18.74;100.00;100893.53;5203744;28;20036;-70
2022/08/17 04:09:53;;;;;;;23.40;16.92;;;;;;;18.68;100.00;100894.41;5203638;28;20116;-70
2022/08/17 04:12:25;;;;;;;28.17;18.95;;;;;;;18.62;100.00;100895.22;5204089;28;20112;-70
2022/08/17 04:14:55;;;;;;;28.95;17.65;;;;;;;18.58;100.00;100892.13;5203157;28;20535;-70
2022/08/17 04:17:28;;;;;;;25.02;17.58;;;;;;;18.57;100.00;100908.63;5203885;28;20116;-70
2022/08/17 04:19:58;;;;;;;24.75;18.60;;;;;;;18.52;100.00;100905.72;5203089;28;20031;-70
2022/08/17 04:22:29;;;;;;;25.23;18.25;;;;;;;18.51;100.00;100909.50;5203809;28;20033;-70
2022/08/17 04:25:04;;;;;;;27.20;19.08;;;;;;;18.50;100.00;100908.66;5202930;28;20040;-70
2022/08/17 04:27:35;;;;;;;23.77;17.55;;;;;;;18.49;100.00;100911.59;5204167;28;20029;-70
2022/08/17 04:30:06;;;;;;;27.60;17.80;;;;;;;18.48;100.00;100927.06;5203565;28;20025;-70
2022/08/17 04:32:58;;;;;;;27.40;20.10;;;;;;;18.54;100.00;100938.97;5203341;28;20094;-70
2022/08/17 04:35:31;;;;;;;26.30;19.42;;;;;;;18.59;100.00;100950.00;5190686;28;20040;-70
2022/08/17 04:38:02;;;;;;;30.45;21.42;;;;;;;18.62;100.00;100949.56;5202473;28;20025;-70
2022/08/17 04:43:23;;;;;;;35.28;22.02;;;;;;;18.70;100.00;100957.50;5203428;28;20463;-70
2022/08/17 04:45:59;;;;;;;33.38;21.48;;;;;;;18.75;100.00;100960.41;5202626;28;20028;-70
2022/08/17 04:48:34;;;;;;;34.60;18.95;;;;;;;18.81;100.00;100950.53;5202244;28;20033;-70
2022/08/17 04:51:08;;;;;;;32.92;21.67;;;;;;;18.83;100.00;100946.56;5203246;28;20072;-70
2022/08/17 04:53:41;;;;;;;30.75;21.13;;;;;;;18.86;100.00;100956.16;5202401;28;20420;-70
2022/08/17 04:56:14;;;;;;;31.05;20.98;;;;;;;18.85;100.00;100949.88;5202700;28;20053;-70
2022/08/17 04:58:48;;;;;;;30.90;22.63;;;;;;;18.82;100.00;100950.31;5203248;28;20036;-70
2022/08/17 05:01:21;;;;;;;30.83;21.80;;;;;;;18.81;100.00;100964.13;5190241;28;20051;-70
2022/08/17 05:03:55;;;;;;;33.47;22.80;;;;;;;18.80;100.00;100952.44;5190811;28;20093;-70
2022/08/17 05:06:27;;;;;;;29.45;19.90;;;;;;;18.78;100.00;100946.38;5193699;28;20416;-70
2022/08/17 05:08:58;;;;;;;36.17;24.67;;;;;;;18.76;100.00;100942.22;5199526;28;20441;-70
2022/08/17 05:11:29;;;;;;;39.20;26.92;;;;;;;18.76;100.00;100950.38;5203459;28;20033;-70
2022/08/17 05:13:59;;;;;;;36.47;25.52;;;;;;;18.74;100.00;100956.03;5202631;28;20017;-70
2022/08/17 05:16:30;;;;;;;35.65;25.02;;;;;;;18.72;100.00;100946.41;5202575;28;20037;-70
2022/08/17 05:19:01;;;;;;;38.38;25.83;;;;;;;18.68;100.00;100950.59;5203145;28;20028;-70
2022/08/17 05:21:32;;;;;;;39.47;25.17;;;;;;;18.64;100.00;100951.03;5203082;28;20026;-70
2022/08/17 05:24:02;;;;;;;44.50;25.52;;;;;;;18.62;100.00;100953.13;5203043;28;20386;-70
2022/08/17 05:26:33;;;;;;;36.08;23.98;;;;;;;18.61;100.00;100948.72;5202578;28;20028;-70
2022/08/17 05:29:03;;;;;;;39.30;26.50;;;;;;;18.68;100.00;100948.75;5201548;28;20028;-71
2022/08/17 05:31:34;;;;;;;42.38;26.52;;;;;;;18.72;100.00;100944.53;5203409;28;20025;-70
2022/08/17 05:34:06;;;;;;;38.00;25.50;;;;;;;18.77;100.00;100941.97;5193231;28;20025;-70
2022/08/17 05:36:39;;;;;;;38.30;25.85;;;;;;;18.82;100.00;100950.31;5198967;28;20044;-71
2022/08/17 05:39:10;;;;;;;34.67;25.80;;;;;;;18.87;100.00;100947.78;5202439;28;20036;-70
2022/08/17 05:41:41;;;;;;;40.17;28.45;;;;;;;18.98;100.00;100953.59;5203071;28;20044;-70
2022/08/17 05:44:11;;;;;;;36.50;24.90;;;;;;;19.07;100.00;100953.09;5202182;28;20033;-70
2022/08/17 05:46:47;;;;;;;35.78;24.33;;;;;;;19.20;100.00;100954.91;5203089;28;20108;-71
2022/08/17 05:49:26;;;;;;;36.53;26.20;;;;;;;19.35;100.00;100960.84;5200726;28;20032;-71
2022/08/17 05:52:13;;;;;;;36.35;24.80;;;;;;;19.48;100.00;100943.59;5205254;28;20033;-70
2022/08/17 05:55:00;;;;;;;34.50;23.80;;;;;;;19.67;100.00;100945.31;5204528;28;20375;-71
2022/08/17 05:57:56;;;;;;;37.90;24.65;;;;;;;19.80;100.00;100941.63;5192894;28;20025;-71
2022/08/17 06:00:37;;;;;;;33.83;22.73;;;;;;;19.91;100.00;100950.94;5205016;28;20036;-71
2022/08/17 06:03:27;;;;;;;31.70;22.80;;;;;;;20.01;100.00;100943.09;5200007;28;20056;-71
2022/08/17 06:06:19;;;;;;;32.33;23.33;;;;;;;20.12;100.00;100944.22;5204234;28;20080;-70
2022/08/17 06:09:06;;;;;;;35.38;22.95;;;;;;;20.18;100.00;100935.13;5205855;28;20048;-71
2022/08/17 06:12:00;;;;;;;30.08;21.45;;;;;;;20.21;100.00;100936.59;5206458;28;20123;-70
2022/08/17 06:14:50;;;;;;;27.65;20.00;;;;;;;20.20;100.00;100940.38;5205271;28;20037;-71
2022/08/17 06:17:24;;;;;;;31.65;21.48;;;;;;;20.16;100.00;100940.81;5206040;28;20021;-70
2022/08/17 06:19:58;;;;;;;30.38;21.02;;;;;;;20.17;100.00;100953.38;5206276;28;20029;-71
2022/08/17 06:22:34;;;;;;;29.67;21.15;;;;;;;20.16;100.00;100951.72;5206313;28;20108;-70
2022/08/17 06:25:14;;;;;;;33.13;21.50;;;;;;;20.21;100.00;100953.75;5205165;28;20022;-70
2022/08/17 06:27:50;;;;;;;29.38;20.58;;;;;;;20.32;100.00;100950.28;5206219;28;20022;-71
2022/08/17 06:30:24;;;;;;;28.23;19.17;;;;;;;20.44;100.00;100951.19;5200032;28;20193;-70
2022/08/17 06:33:12;;;;;;;26.45;19.48;;;;;;;20.57;100.00;100958.38;5198317;28;20026;-70
2022/08/17 06:35:54;;;;;;;32.03;19.65;;;;;;;20.76;100.00;100966.53;5204599;28;20029;-70
2022/08/17 06:38:40;;;;;;;30.92;19.83;;;;;;;20.85;100.00;100981.50;5205277;28;20028;-70
2022/08/17 06:41:22;;;;;;;28.92;20.23;;;;;;;20.85;100.00;100976.88;5205686;28;20029;-70
2022/08/17 06:44:16;;;;;;;21.35;17.55;;;;;;;20.91;100.00;100986.84;5205112;28;20029;-70
2022/08/17 06:46:52;;;;;;;27.45;18.05;;;;;;;20.97;100.00;100984.28;5192140;28;20482;-70
2022/08/17 06:49:44;;;;;;;23.05;17.42;;;;;;;21.02;100.00;100990.69;5199856;28;20029;-70
2022/08/17 06:52:33;;;;;;;25.17;17.50;;;;;;;21.03;100.00;100991.53;5205127;28;20532;-70
2022/08/17 06:55:09;;;;;;;24.75;18.20;;;;;;;21.04;100.00;101007.69;5193356;28;20120;-71
2022/08/17 06:57:45;;;;;;;28.63;17.98;;;;;;;21.00;100.00;101011.09;5206803;28;20021;-70
2022/08/17 07:00:17;;;;;;;27.40;17.52;;;;;;;21.01;100.00;101015.47;5205838;28;20112;-70
2022/08/17 07:02:56;;;;;;;29.58;17.45;;;;;;;20.98;100.00;101015.94;5201673;28;20101;-70
2022/08/17 07:05:35;;;;;;;24.88;17.23;;;;;;;20.95;100.00;101017.25;5198589;28;20487;-70
2022/08/17 07:08:38;;;;;;;32.97;18.63;;;;;;;20.95;100.00;101020.78;5205031;28;20060;-71
2022/08/17 07:11:14;;;;;;;27.48;17.63;;;;;;;20.93;100.00;101027.53;5205070;28;20018;-70
2022/08/17 07:13:51;;;;;;;24.60;18.00;;;;;;;20.92;100.00;101020.41;5203681;28;20106;-70
2022/08/17 07:16:55;;;;;;;25.02;17.45;;;;;;;20.89;100.00;101021.72;5204960;28;20570;-71
2022/08/17 07:19:30;;;;;;;28.77;17.83;;;;;;;20.88;100.00;101008.28;5193384;28;20037;-71
2022/08/17 07:22:06;;;;;;;25.98;17.55;;;;;;;20.82;100.00;101010.03;5204662;28;20021;-70
2022/08/17 07:25:02;;;;;;;23.95;16.63;;;;;;;20.81;100.00;101007.56;5192367;28;20133;-71
2022/08/17 07:27:53;;;;;;;30.02;18.58;;;;;;;20.83;100.00;100998.06;5193229;28;20056;-71
2022/08/17 07:30:27;;;;;;;26.80;18.95;;;;;;;20.81;100.00;100997.50;5204546;28;20096;-71
2022/08/17 07:33:08;;;;;;;31.17;19.35;;;;;;;20.63;100.00;101002.94;5204389;28;20030;-71
2022/08/17 07:35:40;;;;;;;35.28;22.67;;;;;;;20.53;100.00;101019.00;5203652;28;20104;-72
2022/08/17 07:38:30;;;;;;;37.83;24.50;;;;;;;20.44;100.00;101013.03;5204523;28;20032;-72
2022/08/17 07:41:07;;;;;;;38.47;23.15;;;;;;;20.44;100.00;101016.56;5204846;28;20033;-72
2022/08/17 07:43:38;;;;;;;38.83;24.98;;;;;;;20.48;100.00;101016.97;5204577;28;20023;-72
2022/08/17 07:49:01;;;;;;;38.25;25.30;;;;;;;20.56;100.00;101010.41;5202880;28;20515;-72
2022/08/17 07:51:36;;;;;;;37.33;24.15;;;;;;;20.54;100.00;101010.63;5204669;28;20026;-72
2022/08/17 07:54:29;;;;;;;38.08;25.67;;;;;;;20.54;100.00;101009.81;5203687;28;20021;-72
2022/08/17 07:57:23;;;;;;;35.60;22.90;;;;;;;20.57;100.00;101007.44;5192809;28;20101;-72
2022/08/17 08:00:18;;;;;;;43.55;26.02;;;;;;;20.57;100.00;101017.50;5191661;28;20056;-72
2022/08/17 08:03:00;;;;;;;38.08;27.38;;;;;;;20.56;100.00;101018.56;5200046;28;20087;-72
2022/08/17 08:05:31;;;;;;;44.75;27.88;;;;;;;20.55;100.00;101020.47;5197765;28;20025;-71
2022/08/17 08:08:17;;;;;;;44.88;28.27;;;;;;;20.50;100.00;101023.03;5204122;28;20036;-71
2022/08/17 08:11:14;;;;;;;50.85;30.88;;;;;;;20.49;100.00;101032.28;5203963;28;20108;-71
2022/08/17 08:13:44;;;;;;;46.17;30.52;;;;;;;20.49;100.00;101036.91;5202779;28;20031;-71
2022/08/17 08:16:16;;;;;;;47.28;30.88;;;;;;;20.48;100.00;101040.66;5203485;28;20029;-71
2022/08/17 08:18:49;;;;;;;47.90;31.40;;;;;;;20.43;100.00;101055.78;5202515;28;20025;-72
2022/08/17 08:21:57;;;;;;;45.45;31.85;;;;;;;20.34;100.00;101067.22;5203815;28;20029;-72
2022/08/17 08:24:51;;;;;;;52.40;33.03;;;;;;;20.23;100.00;101070.66;5193588;28;20032;-72
2022/08/17 08:27:36;;;;;;;54.47;33.60;;;;;;;20.14;100.00;101089.19;5203654;28;20033;-72
2022/08/17 08:30:13;;;;;;;51.50;34.55;;;;;;;20.05;100.00;101090.53;5203264;28;20022;-72
2022/08/17 08:33:03;;;;;;;56.55;36.05;;;;;;;19.96;100.00;101102.75;5203362;28;20029;-72
2022/08/17 08:35:52;;;;;;;56.35;36.83;;;;;;;19.87;100.00;101108.47;5202817;28;20514;-72
2022/08/17 08:38:55;;;;;;;64.47;36.35;;;;;;;19.80;100.00;101106.84;5203167;28;20069;-72
2022/08/17 08:41:53;;;;;;;64.95;39.17;;;;;;;19.71;100.00;101109.00;5203393;28;20013;-72
2022/08/17 08:44:43;;;;;;;69.15;39.80;;;;;;;19.67;100.00;101086.00;5200607;28;20507;-72
2022/08/17 08:47:50;;;;;;;66.03;37.58;;;;;;;19.67;100.00;101094.16;5193429;28;20446;-72
2022/08/17 08:50:30;;;;;;;58.92;35.47;;;;;;;19.69;100.00;101074.91;5192103;28;20120;-72
2022/08/17 08:53:17;;;;;;;63.38;36.25;;;;;;;19.78;100.00;101063.53;5202492;28;20572;-71
2022/08/17 08:56:08;;;;;;;66.15;37.13;;;;;;;19.75;100.00;101055.78;5202771;28;20040;-72
2022/08/17 08:59:13;;;;;;;60.67;38.25;;;;;;;19.72;100.00;101063.56;5203011;28;20025;-72
2022/08/17 09:02:17;;;;;;;60.38;37.72;;;;;;;19.74;100.00;101066.91;5193400;28;20037;-72
2022/08/17 09:05:06;;;;;;;54.10;34.72;;;;;;;19.86;100.00;101060.50;5190493;28;20055;-72
2022/08/17 09:07:43;;;;;;;65.93;37.60;;;;;;;19.83;100.00;101066.44;5202893;28;20120;-72
2022/08/17 09:10:24;;;;;;;68.93;42.15;;;;;;;19.85;100.00;101069.75;5202839;28;20037;-72
2022/08/17 09:13:05;;;;;;;67.55;41.65;;;;;;;19.95;100.00;101071.13;5203298;28;20380;-72
2022/08/17 09:15:45;;;;;;;65.85;39.78;;;;;;;20.08;100.00;101071.00;5202768;28;20032;-72
2022/08/17 09:18:22;;;;;;;70.10;44.33;;;;;;;20.16;100.00;101079.72;5203199;28;20029;-72
2022/08/17 09:20:58;;;;;;;74.63;41.35;;;;;;;20.27;100.00;101089.06;5203161;28;20040;-72
2022/08/17 09:23:36;;;;;;;61.70;37.90;;;;;;;20.30;100.00;101083.16;5202600;28;20133;-72
2022/08/17 09:26:15;;;;;;;68.45;43.38;;;;;;;20.36;100.00;101087.72;5206347;28;20032;-72
2022/08/17 09:28:50;;;;;;;75.80;45.92;;;;;;;20.44;100.00;101090.16;5206851;28;20777;-72
2022/08/17 09:31:27;;;;;;;70.45;44.40;;;;;;;20.50;100.00;101095.78;5205546;28;20031;-72
2022/08/17 09:33:59;;;;;;;75.78;43.75;;;;;;;20.53;100.00;101081.69;5206888;28;20033;-72
2022/08/17 09:36:39;;;;;;;86.85;48.08;;;;;;;20.60;100.00;101086.03;5206159;28;20036;-72
2022/08/17 09:39:18;;;;;;;80.35;46.33;;;;;;;20.65;100.00;101085.34;5206817;28;20029;-72
2022/08/17 09:42:09;;;;;;;79.50;44.15;;;;;;;20.66;100.00;101081.56;5206532;28;20043;-72
2022/08/17 09:44:50;;;;;;;76.35;44.72;;;;;;;20.69;100.00;101086.56;5206178;28;20296;-72
2022/08/17 09:47:46;;;;;;;72.38;46.05;;;;;;;20.70;100.00;101093.69;5206345;28;20409;-72
2022/08/17 09:50:20;;;;;;;;;;;;;;;20.65;100.00;101090.81;5196244;28;20501;-72
2022/08/17 09:52:55;;;;;;;71.93;46.22;;;;;;;20.59;100.00;101098.00;5206049;28;19913;-72
2022/08/17 09:55:42;;;;;;;72.82;46.40;;;;;;;20.57;100.00;101102.81;5205706;28;20031;-72
2022/08/17 09:58:39;;;;;;;76.93;49.30;;;;;;;20.54;100.00;101099.75;5194673;28;20052;-72
2022/08/17 10:01:25;;;;;;;75.60;47.95;;;;;;;20.51;100.00;101108.34;5206116;28;20029;-72
2022/08/17 10:04:13;;;;;;;;;;;;;;;20.50;100.00;101112.16;5195504;28;20087;-72
2022/08/17 10:06:53;;;;;;;81.22;50.53;;;;;;;20.51;100.00;101106.47;5206486;28;19916;-72
2022/08/17 10:09:45;;;;;;;75.60;46.25;;;;;;;20.59;100.00;101091.72;5206139;28;20125;-72
2022/08/17 10:12:31;;;;;;;73.63;46.03;;;;;;;20.65;100.00;101090.81;5205845;28;20037;-72
2022/08/17 10:15:24;;;;;;;76.72;48.47;;;;;;;20.61;100.00;101103.22;5205181;28;20483;-72
2022/08/17 10:18:13;;;;;;;73.55;46.83;;;;;;;20.71;100.00;101110.88;5206127;28;20032;-72
2022/08/17 10:26:11;;;;;;;79.72;49.40;;;;;;;20.80;100.00;101104.88;5193091;28;20025;-72
2022/08/17 10:26:43;;;;;;;70.13;44.15;;;;;;;21.03;100.00;101093.25;5205186;28;20033;-72
2022/08/17 10:29:21;;;;;;;71.03;44.88;;;;;;;21.06;100.00;101095.53;5205638;28;20104;-72
2022/08/17 10:32:00;;;;;;;63.17;42.95;;;;;;;21.10;100.00;101088.56;5205554;28;20160;-72
2022/08/17 10:34:31;;;;;;;64.22;41.80;;;;;;;21.09;100.00;101091.53;5204935;28;20029;-72
2022/08/17 10:37:39;;;;;;;65.55;44.42;;;;;;;21.02;100.00;101098.97;5204528;28;20509;-72
2022/08/17 10:40:44;;;;;;;76.72;49.78;;;;;;;20.89;100.00;101100.78;5205514;28;20025;-72
2022/08/17 10:43:25;;;;;;;83.40;52.63;;;;;;;20.86;100.00;101109.41;5205906;28;20614;-72
2022/08/17 10:46:14;;;;;;;74.28;47.38;;;;;;;20.85;100.00;101110.50;5205060;28;20063;-72
2022/08/17 10:49:06;;;;;;;74.70;48.47;;;;;;;20.83;100.00;101109.03;5209096;28;20022;-72
2022/08/17 10:51:39;;;;;;;75.82;50.38;;;;;;;20.79;100.00;101116.03;5192461;28;20029;-72
2022/08/17 10:54:44;;;;;;;78.68;47.58;;;;;;;20.72;100.00;101113.34;5204261;28;20028;-71
2022/08/17 10:57:26;;;;;;;61.20;42.95;;;;;;;20.77;100.00;101112.69;5205160;28;20079;-71
2022/08/17 10:59:59;;;;;;;59.88;40.08;;;;;;;20.84;100.00;101117.00;5204776;28;20075;-71
2022/08/17 11:02:39;;;;;;;66.63;43.15;;;;;;;20.92;100.00;101118.59;5202672;28;20029;-71
2022/08/17 11:05:40;;;;;;;70.38;46.03;;;;;;;20.93;100.00;101112.91;5196532;28;20543;-72
2022/08/17 11:08:56;;;;;;;69.22;44.75;;;;;;;20.93;100.00;101115.66;5205036;28;20033;-71
2022/08/17 11:11:37;;;;;;;69.28;46.08;;;;;;;20.92;100.00;101127.59;5203900;28;20021;-71
2022/08/17 11:14:32;;;;;;;73.25;48.10;;;;;;;20.92;100.00;101126.75;5204501;28;20030;-71
2022/08/17 11:17:15;;;;;;;86.38;51.53;;;;;;;20.94;100.00;101128.22;5191715;28;20443;-72
2022/08/17 11:20:05;;;;;;;83.78;51.85;;;;;;;20.98;100.00;101127.75;5204868;28;20030;-71
2022/08/17 11:23:03;;;;;;;77.75;48.42;;;;;;;20.98;100.00;101120.38;5193028;28;20029;-71
2022/08/17 11:25:53;;;;;;;83.60;52.03;;;;;;;20.98;100.00;101134.03;5204048;28;20029;-71
2022/08/17 11:28:27;;;;;;;84.18;51.65;;;;;;;20.93;100.00;101133.88;5204618;28;20025;-71
2022/08/17 11:31:05;;;;;;;82.75;50.95;;;;;;;20.89;100.00;101135.41;5205220;28;20021;-72
2022/08/17 11:33:52;;;;;;;91.15;54.72;;;;;;;20.87;100.00;101143.81;5204744;28;20041;-71
2022/08/17 11:37:00;;;;;;;86.32;55.38;;;;;;;20.88;100.00;101153.69;5204440;28;20394;-71
2022/08/17 11:40:00;;;;;;;92.43;55.92;;;;;;;20.85;100.00;101151.38;5204125;28;20061;-71
2022/08/17 11:42:45;;;;;;;95.82;55.63;;;;;;;20.84;100.00;101154.34;5204756;28;20053;-71
2022/08/17 11:45:51;;;;;;;78.88;51.67;;;;;;;20.74;100.00;101149.41;5204039;28;20021;-71
2022/08/17 11:51:53;;;;;;;90.53;51.10;;;;;;;20.79;100.00;101156.94;5204237;28;20348;-71
2022/08/17 11:54:41;;;;;;;80.28;49.33;;;;;;;20.79;100.00;101154.19;5201954;28;20034;-71
2022/08/17 11:57:44;;;;;;;66.35;42.97;;;;;;;20.58;100.00;101147.25;5204014;28;20056;-71
2022/08/17 12:00:43;;;;;;;62.65;40.63;;;;;;;20.53;100.00;101155.28;5203704;28;20430;-71
2022/08/17 12:03:32;;;;;;;59.55;38.97;;;;;;;20.51;100.00;101154.69;5186355;28;20489;-71
2022/08/17 12:06:38;;;;;;;57.25;37.88;;;;;;;20.53;100.00;101149.81;5201918;28;20399;-71
2022/08/17 12:09:15;;;;;;;52.20;36.08;;;;;;;20.65;100.00;101151.59;5203687;28;20022;-71
2022/08/17 12:11:52;;;;;;;57.55;36.92;;;;;;;20.87;100.00;101153.88;5204048;28;20391;-71
2022/08/17 12:14:27;;;;;;;46.35;33.17;;;;;;;20.88;100.00;101148.22;5203148;28;20033;-71
2022/08/17 12:17:00;;;;;;;55.25;33.92;;;;;;;20.97;100.00;101147.91;5203602;28;20399;-71
2022/08/17 12:19:32;;;;;;;49.67;31.70;;;;;;;21.14;100.00;101155.25;5203616;28;20026;-71